createdAt,value
2019-04-06T00:00:45.990Z,21.60
2019-04-06T00:05:49.739Z,21.60
2019-04-06T00:10:55.184Z,21.60
2019-04-06T00:15:59.179Z,21.60
2019-04-06T00:21:04.181Z,21.60
2019-04-06T00:26:07.956Z,21.60
2019-04-06T00:31:21.628Z,21.60
2019-04-06T00:36:26.822Z,21.60
2019-04-06T00:41:31.895Z,21.60
2019-04-06T00:46:37.954Z,21.60
2019-04-06T00:51:41.648Z,21.60
2019-04-06T00:56:45.316Z,21.60
2019-04-06T01:01:48.992Z,21.60
2019-04-06T01:06:52.632Z,21.60
2019-04-06T01:11:56.249Z,21.60
2019-04-06T01:16:59.883Z,21.60
2019-04-06T01:22:03.534Z,21.60
2019-04-06T01:27:07.245Z,21.60
2019-04-06T01:32:11.038Z,21.60
2019-04-06T01:37:14.787Z,21.60
2019-04-06T01:42:19.432Z,21.60
2019-04-06T01:47:23.135Z,21.60
2019-04-06T01:52:26.819Z,21.60
2019-04-06T01:57:30.629Z,21.60
2019-04-06T02:02:36.769Z,21.60
2019-04-06T02:07:40.470Z,21.60
2019-04-06T02:12:44.136Z,21.60
2019-04-06T02:17:47.857Z,21.60
2019-04-06T02:22:51.735Z,21.60
2019-04-06T02:27:55.349Z,21.60
2019-04-06T02:33:18.081Z,21.60
2019-04-06T02:38:27.389Z,21.60
2019-04-06T02:43:33.059Z,21.60
2019-04-06T02:48:36.918Z,21.60
2019-04-06T02:53:40.864Z,21.60
2019-04-06T02:58:45.050Z,21.60
2019-04-06T03:03:48.846Z,21.60
2019-04-06T03:08:52.630Z,21.60
2019-04-06T03:13:56.494Z,21.60
2019-04-06T03:19:02.111Z,21.60
2019-04-06T03:24:05.613Z,21.60
2019-04-06T03:29:09.311Z,21.60
2019-04-06T03:34:13.050Z,21.60
2019-04-06T03:39:16.970Z,21.60
2019-04-06T03:44:20.931Z,21.60
2019-04-06T03:49:24.589Z,21.60
2019-04-06T03:54:28.288Z,21.60
2019-04-06T03:59:31.996Z,21.60
2019-04-06T04:04:35.767Z,21.60
2019-04-06T04:09:39.525Z,21.60
2019-04-06T04:14:43.217Z,21.60
2019-04-06T04:19:46.882Z,21.60
2019-04-06T04:24:50.651Z,21.60
2019-04-06T04:29:54.590Z,21.60
2019-04-06T04:34:58.418Z,21.60
2019-04-06T04:40:02.349Z,21.60
2019-04-06T04:45:06.535Z,21.60
2019-04-06T04:50:10.398Z,21.60
2019-04-06T04:55:14.142Z,21.60
2019-04-06T05:00:17.789Z,21.60
2019-04-06T05:05:21.601Z,21.60
2019-04-06T05:10:25.282Z,21.60
2019-04-06T05:15:47.261Z,21.60
2019-04-06T05:20:51.018Z,21.60
2019-04-06T05:25:54.777Z,21.60
2019-04-06T05:30:59.119Z,21.60
2019-04-06T05:36:03.162Z,21.60
2019-04-06T05:41:06.892Z,21.60
2019-04-06T05:46:17.467Z,21.60
2019-04-06T05:51:21.157Z,21.60
2019-04-06T05:56:24.983Z,21.60
2019-04-06T06:01:28.833Z,21.60
2019-04-06T06:06:32.768Z,21.60
2019-04-06T06:11:36.751Z,21.60
2019-04-06T06:16:40.508Z,21.60
2019-04-06T06:21:44.366Z,21.60
2019-04-06T06:26:48.010Z,21.60
2019-04-06T06:31:51.699Z,21.60
2019-04-06T06:36:55.529Z,21.60
2019-04-06T06:41:59.227Z,21.60
2019-04-06T06:47:02.877Z,21.60
2019-04-06T06:52:07.141Z,21.60
2019-04-06T06:57:11.094Z,21.60
2019-04-06T07:02:14.933Z,21.60
2019-04-06T07:07:18.684Z,21.60
2019-04-06T07:12:22.362Z,21.60
2019-04-06T07:17:26.143Z,21.60
2019-04-06T07:22:29.896Z,21.60
2019-04-06T07:27:33.770Z,21.60
2019-04-06T07:32:37.490Z,21.60
2019-04-06T07:37:41.254Z,21.70
2019-04-06T07:42:44.986Z,21.60
2019-04-06T07:47:48.774Z,21.60
2019-04-06T07:52:54.535Z,21.60
2019-04-06T07:57:58.752Z,21.60
2019-04-06T08:03:02.760Z,21.70
2019-04-06T08:08:06.550Z,21.80
2019-04-06T08:13:10.282Z,21.70
2019-04-06T08:18:13.978Z,21.70
2019-04-06T08:23:17.679Z,21.70
2019-04-06T08:28:21.407Z,21.70
2019-04-06T08:33:25.584Z,21.70
2019-04-06T08:38:29.351Z,21.70
2019-04-06T08:43:33.432Z,21.70
2019-04-06T08:48:37.117Z,21.70
2019-04-06T08:53:40.908Z,21.70
2019-04-06T08:58:44.811Z,21.70
2019-04-06T09:03:48.945Z,21.60
2019-04-06T09:08:52.794Z,21.60
2019-04-06T09:13:56.696Z,21.70
2019-04-06T09:19:00.525Z,21.70
2019-04-06T09:24:04.378Z,21.60
2019-04-06T09:29:08.227Z,21.70
2019-04-06T09:34:13.992Z,21.60
2019-04-06T09:39:17.703Z,21.60
2019-04-06T09:44:43.844Z,21.70
2019-04-06T09:50:05.815Z,21.60
2019-04-06T09:55:24.589Z,21.70
2019-04-06T10:00:46.114Z,21.60
2019-04-06T10:06:11.997Z,21.70
2019-04-06T10:11:41.421Z,21.70
2019-04-06T10:17:07.587Z,21.60
2019-04-06T10:22:29.522Z,21.70
2019-04-06T10:28:10.476Z,21.60
2019-04-06T10:33:31.621Z,21.70
2019-04-06T10:39:00.214Z,21.70
2019-04-06T10:44:26.333Z,21.70
2019-04-06T10:49:45.759Z,21.60
2019-04-06T10:54:58.326Z,21.70
2019-04-06T11:00:27.256Z,21.60
2019-04-06T11:06:02.471Z,21.70
2019-04-06T11:11:24.168Z,21.60
2019-04-06T11:16:53.216Z,21.60
2019-04-06T11:22:07.529Z,21.60
2019-04-06T11:27:29.124Z,21.60
2019-04-06T11:32:58.159Z,21.60
2019-04-06T11:38:14.764Z,21.60
2019-04-06T11:43:26.193Z,21.60
2019-04-06T11:48:49.977Z,21.70
2019-04-06T11:54:12.667Z,21.60
2019-04-06T11:59:34.194Z,21.60
2019-04-06T12:04:48.365Z,21.60
2019-04-06T12:10:04.158Z,21.60
2019-04-06T12:15:33.700Z,21.60
2019-04-06T12:21:08.570Z,21.60
2019-04-06T12:26:37.285Z,21.60
2019-04-06T12:31:56.669Z,21.60
2019-04-06T12:37:11.303Z,21.60
2019-04-06T12:42:31.606Z,21.60
2019-04-06T12:47:49.842Z,21.60
2019-04-06T12:53:11.464Z,21.70
2019-04-06T12:58:34.341Z,21.60
2019-04-06T13:03:57.157Z,21.60
2019-04-06T13:09:26.278Z,21.60
2019-04-06T13:14:49.381Z,21.60
2019-04-06T13:20:30.617Z,21.70
2019-04-06T13:25:58.556Z,21.60
2019-04-06T13:31:20.334Z,21.70
2019-04-06T13:36:50.014Z,21.70
2019-04-06T13:42:24.899Z,21.70
2019-04-06T13:47:39.270Z,21.70
2019-04-06T13:52:57.613Z,21.60
2019-04-06T13:58:23.265Z,21.70
2019-04-06T14:03:34.915Z,21.60
2019-04-06T14:09:00.655Z,21.70
2019-04-06T14:14:38.602Z,21.60
2019-04-06T14:19:52.620Z,21.60
2019-04-06T14:25:15.453Z,21.70
2019-04-06T14:30:32.573Z,21.60
2019-04-06T14:35:58.695Z,21.60
2019-04-06T14:41:24.428Z,21.70
2019-04-06T14:46:56.834Z,21.70
2019-04-06T14:52:08.949Z,21.70
2019-04-06T14:57:24.799Z,21.70
2019-04-06T15:02:56.524Z,21.70
2019-04-06T15:08:07.048Z,21.70
2019-04-06T15:13:28.764Z,21.60
2019-04-06T15:18:50.502Z,21.70
2019-04-06T15:24:19.147Z,21.70
2019-04-06T15:29:31.862Z,21.70
2019-04-06T15:34:44.013Z,21.70
2019-04-06T15:40:05.414Z,21.70
2019-04-06T15:45:37.207Z,21.70
2019-04-06T15:50:56.252Z,21.70
2019-04-06T15:56:09.705Z,21.70
2019-04-06T16:01:31.817Z,21.70
2019-04-06T16:07:00.723Z,21.70
2019-04-06T16:12:20.480Z,21.70
2019-04-06T16:17:34.075Z,21.70
2019-04-06T16:22:57.000Z,21.70
2019-04-06T16:28:09.726Z,21.70
2019-04-06T16:33:36.895Z,21.70
2019-04-06T16:39:06.046Z,21.70
2019-04-06T16:44:29.780Z,21.70
2019-04-06T16:49:49.698Z,21.70
2019-04-06T16:55:00.322Z,21.70
2019-04-06T17:00:23.057Z,21.70
2019-04-06T17:05:44.944Z,21.70
2019-04-06T17:10:57.879Z,21.70
2019-04-06T17:16:24.385Z,21.70
2019-04-06T17:21:39.809Z,21.70
2019-04-06T17:27:18.089Z,21.70
2019-04-06T17:32:59.481Z,21.70
2019-04-06T17:38:22.627Z,21.70
2019-04-06T17:43:46.953Z,21.70
2019-04-06T17:49:11.832Z,21.70
2019-04-06T17:54:40.687Z,21.70
2019-04-06T17:59:55.192Z,21.70
2019-04-06T18:05:21.643Z,21.80
2019-04-06T18:10:48.038Z,21.80
2019-04-06T18:15:51.965Z,21.90
2019-04-06T18:20:55.699Z,21.90
2019-04-06T18:25:59.550Z,21.90
2019-04-06T18:31:10.359Z,22.00
2019-04-06T18:36:14.175Z,22.00
2019-04-06T18:41:17.964Z,22.00
2019-04-06T18:46:21.735Z,22.10
2019-04-06T18:51:25.855Z,22.10
2019-04-06T18:56:29.924Z,22.10
2019-04-06T19:01:33.728Z,22.20
2019-04-06T19:06:37.622Z,22.20
2019-04-06T19:11:52.864Z,22.20
2019-04-06T19:16:46.761Z,22.30
2019-04-06T19:21:50.781Z,22.30
2019-04-06T19:26:55.946Z,22.30
2019-04-06T19:32:00.191Z,22.30
2019-04-06T19:37:04.123Z,22.30
2019-04-06T19:42:08.120Z,22.30
2019-04-06T19:47:12.460Z,22.30
2019-04-06T19:52:16.327Z,22.20
2019-04-06T19:57:20.601Z,22.20
2019-04-06T20:02:24.584Z,22.20
2019-04-06T20:07:28.710Z,22.20
2019-04-06T20:12:32.690Z,22.20
2019-04-06T20:17:36.790Z,22.20
2019-04-06T20:22:41.666Z,22.20
2019-04-06T20:27:45.465Z,22.20
2019-04-06T20:32:49.389Z,22.20
2019-04-06T20:37:53.112Z,22.20
2019-04-06T20:42:58.750Z,22.10
2019-04-06T20:48:02.934Z,22.10
2019-04-06T20:53:07.195Z,22.10
2019-04-06T20:58:11.755Z,22.10
2019-04-06T21:03:16.069Z,22.10
2019-04-06T21:08:20.079Z,22.10
2019-04-06T21:13:25.021Z,22.10
2019-04-06T21:18:28.930Z,22.10
2019-04-06T21:23:32.883Z,22.00
2019-04-06T21:28:36.847Z,22.00
2019-04-06T21:33:40.608Z,22.00
2019-04-06T21:38:44.557Z,22.00
2019-04-06T21:43:49.420Z,22.00
2019-04-06T21:48:53.339Z,22.00
2019-04-06T21:53:57.579Z,22.00
2019-04-06T21:59:01.630Z,22.00
2019-04-06T22:04:05.583Z,22.00
2019-04-06T22:09:12.738Z,22.00
2019-04-06T22:14:17.589Z,22.00
2019-04-06T22:19:22.458Z,22.10
2019-04-06T22:24:27.272Z,22.00
2019-04-06T22:29:31.455Z,22.00
2019-04-06T22:34:39.890Z,22.00
2019-04-06T22:39:41.125Z,22.00
2019-04-06T22:44:46.420Z,22.00
2019-04-06T22:49:50.279Z,22.00
2019-04-06T22:54:54.277Z,22.00
2019-04-06T22:59:58.670Z,22.00
2019-04-06T23:05:17.690Z,22.00
2019-04-06T23:10:21.486Z,22.00
2019-04-06T23:15:25.469Z,22.00
2019-04-06T23:20:30.220Z,22.00
2019-04-06T23:25:35.937Z,22.00
2019-04-06T23:30:39.736Z,22.00
2019-04-06T23:35:43.744Z,22.00
2019-04-06T23:40:47.464Z,21.90
2019-04-06T23:45:51.575Z,22.00
2019-04-06T23:50:55.428Z,22.00
2019-04-06T23:55:59.818Z,21.90
